Time;durP1;ratioP1;P1;durP2;ratioP2;P2;SDS_P1;SDS_P2;PMS_P1;PMS_P2;Temp;Humidity;BMP_temperature;BMP_pressure;BME280_temperature;BME280_humidity;BME280_pressure;Samples;Min_cycle;Max_cycle;Signal;HPM_P1;HPM_P2
2022/09/29 00:01:03;;;;;;;8.50;5.85;;;;;;;18.80;60.86;100077.66;5046566;28;20459;-69
2022/09/29 00:03:28;;;;;;;6.22;5.25;;;;;;;18.75;61.05;100072.22;5046404;28;20404;-70
2022/09/29 00:06:51;;;;;;;7.00;5.43;;;;;;;18.74;61.10;100074.06;5056400;28;20406;-70
2022/09/29 00:09:16;;;;;;;9.25;5.50;;;;;;;18.73;61.07;100084.00;5047068;28;20471;-70
2022/09/29 00:11:42;;;;;;;9.37;5.47;;;;;;;18.70;61.13;100081.78;5039313;28;20393;-71
2022/09/29 00:17:44;;;;;;;10.68;6.70;;;;;;;18.66;60.58;100072.56;5084153;27;20466;-70
2022/09/29 00:20:10;;;;;;;15.10;6.15;;;;;;;18.64;60.43;100073.88;5066762;28;20812;-69
2022/09/29 00:22:35;;;;;;;7.37;6.13;;;;;;;18.60;60.51;100080.75;5066559;28;20377;-70
2022/09/29 00:25:01;;;;;;;10.27;8.33;;;;;;;18.62;60.59;100075.97;5067143;28;20380;-70
2022/09/29 00:27:26;;;;;;;9.43;6.90;;;;;;;18.58;60.40;100067.56;5066430;28;20407;-70
2022/09/29 00:29:51;;;;;;;8.20;6.83;;;;;;;18.55;60.37;100070.75;5066352;28;20944;-70
2022/09/29 00:32:17;;;;;;;8.60;6.50;;;;;;;18.52;60.54;100071.22;5066624;28;20390;-70
2022/09/29 00:37:04;;;;;;;12.57;8.85;;;;;;;18.47;60.37;100063.06;5089335;27;20406;-70
2022/09/29 00:39:30;;;;;;;15.90;13.90;;;;;;;18.41;60.15;100066.72;5087100;28;20754;-69
2022/09/29 00:42:53;;;;;;;15.45;12.25;;;;;;;18.36;60.38;100071.97;5077187;27;20411;-70
2022/09/29 00:45:21;;;;;;;12.37;9.87;;;;;;;18.32;60.48;100071.63;5066711;28;20408;-69
2022/09/29 00:47:54;;;;;;;9.40;8.40;;;;;;;18.29;60.57;100069.41;5066821;28;20805;-70
2022/09/29 00:50:20;;;;;;;10.02;7.50;;;;;;;18.26;60.46;100062.66;5066756;28;20415;-69
2022/09/29 00:53:00;;;;;;;13.02;7.30;;;;;;;18.26;60.72;100064.53;5066367;28;20408;-69
2022/09/29 00:55:52;;;;;;;11.88;7.18;;;;;;;18.22;60.41;100058.00;5066601;28;20380;-70
2022/09/29 00:58:32;;;;;;;6.47;4.55;;;;;;;18.18;60.24;100060.34;5042804;28;20928;-69
2022/09/29 01:03:06;;;;;;;6.43;4.90;;;;;;;18.18;60.26;100059.53;5094397;27;20461;-69
2022/09/29 01:06:52;;;;;;;7.50;4.37;;;;;;;18.21;60.21;100064.44;5095495;27;20406;-70
2022/09/29 01:09:56;;;;;;;7.17;4.07;;;;;;;18.13;60.10;100047.66;5077292;27;20517;-70
2022/09/29 01:12:22;;;;;;;11.10;4.17;;;;;;;18.10;60.02;100056.16;5052588;28;20405;-70
2022/09/29 01:14:48;;;;;;;8.10;3.80;;;;;;;18.06;60.07;100054.16;5066563;28;20384;-70
2022/09/29 01:17:50;;;;;;;7.75;3.83;;;;;;;18.02;60.15;100044.97;5062735;28;20822;-69
2022/09/29 01:22:04;;;;;;;6.43;3.40;;;;;;;18.01;60.31;100046.03;5057558;28;20409;-70
2022/09/29 01:24:44;;;;;;;5.10;2.97;;;;;;;17.97;59.80;100043.00;5043873;28;20403;-69
2022/09/29 01:27:23;;;;;;;5.30;3.20;;;;;;;17.98;60.08;100041.13;5026985;28;20869;-70
2022/09/29 01:30:00;;;;;;;7.75;3.60;;;;;;;18.01;60.25;100043.38;5026468;28;20394;-69
2022/09/29 01:32:46;;;;;;;6.65;3.15;;;;;;;17.99;60.38;100045.44;5026857;28;20441;-70
2022/09/29 01:35:25;;;;;;;9.13;3.77;;;;;;;18.00;60.30;100045.22;5021158;28;20388;-69
2022/09/29 01:39:48;;;;;;;7.28;4.38;;;;;;;17.99;60.06;100048.13;5078948;27;20412;-70
2022/09/29 01:42:13;;;;;;;9.52;4.30;;;;;;;18.02;59.81;100050.34;5055605;28;20998;-70
2022/09/29 01:44:49;;;;;;;5.35;3.28;;;;;;;17.99;59.77;100059.69;5066513;28;20418;-69
2022/09/29 01:47:27;;;;;;;4.80;2.88;;;;;;;17.95;59.66;100064.69;5066779;28;20403;-70
2022/09/29 01:49:59;;;;;;;6.53;2.90;;;;;;;17.94;59.14;100073.78;5066732;28;20399;-70
2022/09/29 01:52:29;;;;;;;8.27;2.60;;;;;;;17.92;59.34;100067.84;5066941;28;20461;-70
2022/09/29 01:55:00;;;;;;;4.65;2.42;;;;;;;17.96;59.42;100079.72;5066305;28;20384;-69
2022/09/29 01:58:34;;;;;;;5.57;2.65;;;;;;;17.95;59.31;100067.38;5048006;28;20911;-70
2022/09/29 02:01:06;;;;;;;5.45;2.60;;;;;;;17.96;59.27;100066.31;5027076;28;20399;-70
2022/09/29 02:03:56;;;;;;;5.18;2.40;;;;;;;17.95;59.44;100070.06;5027164;28;20474;-69
2022/09/29 02:06:35;;;;;;;5.55;3.58;;;;;;;17.92;59.41;100069.72;5013801;28;20407;-69
2022/09/29 02:09:03;;;;;;;8.82;3.65;;;;;;;17.89;59.52;100064.81;5026842;28;20426;-70
2022/09/29 02:13:05;;;;;;;6.78;3.70;;;;;;;17.90;59.51;100069.94;5059739;28;20923;-70
2022/09/29 02:15:35;;;;;;;7.72;3.80;;;;;;;17.87;59.91;100065.03;5047059;28;20405;-71
2022/09/29 02:18:18;;;;;;;6.20;3.65;;;;;;;17.88;59.85;100071.22;5032894;28;20413;-70
2022/09/29 02:20:46;;;;;;;6.85;4.43;;;;;;;17.92;59.79;100078.56;5032796;28;20396;-70
2022/09/29 02:23:12;;;;;;;7.00;3.77;;;;;;;17.90;59.78;100075.31;5025669;28;20983;-70
2022/09/29 02:25:39;;;;;;;5.33;3.30;;;;;;;17.90;59.74;100072.63;5026661;28;20387;-70
2022/09/29 02:28:06;;;;;;;5.87;3.27;;;;;;;17.91;59.83;100074.25;5007054;28;20397;-71
2022/09/29 02:30:32;;;;;;;6.03;2.70;;;;;;;17.88;59.67;100079.25;5016929;28;20817;-70
2022/09/29 02:32:58;;;;;;;4.53;3.00;;;;;;;17.88;59.73;100073.88;5028857;28;20391;-70
2022/09/29 02:35:28;;;;;;;5.53;2.88;;;;;;;17.89;59.63;100083.59;5033659;28;20416;-71
2022/09/29 02:38:05;;;;;;;7.97;2.72;;;;;;;17.90;59.84;100085.22;5037009;28;20465;-70
2022/09/29 02:46:06;;;;;;;6.90;2.42;;;;;;;17.89;59.84;100088.94;5059703;27;20408;-69
2022/09/29 02:48:31;;;;;;;7.30;2.50;;;;;;;17.93;59.90;100092.78;5066285;28;20403;-69
2022/09/29 02:51:55;;;;;;;5.22;2.38;;;;;;;17.89;59.16;100097.00;5042460;28;20481;-69
2022/09/29 02:54:29;;;;;;;5.68;1.80;;;;;;;17.87;58.87;100099.91;5024872;28;20426;-70
2022/09/29 02:57:17;;;;;;;4.37;1.90;;;;;;;17.87;58.37;100091.84;5026270;28;20399;-69
2022/09/29 03:00:58;;;;;;;4.78;1.77;;;;;;;17.86;58.27;100102.81;5071504;27;20929;-68
2022/09/29 03:03:24;;;;;;;7.63;1.92;;;;;;;17.82;58.22;100102.44;5065945;28;20923;-70
2022/09/29 03:10:28;;;;;;;5.07;1.83;;;;;;;17.82;58.11;100110.47;5068135;27;20461;-69
2022/09/29 03:12:54;;;;;;;5.50;1.95;;;;;;;17.80;58.20;100101.84;5060950;28;20409;-70
2022/09/29 03:15:20;;;;;;;7.80;1.90;;;;;;;17.79;58.12;100097.56;5062543;28;20445;-69
2022/09/29 03:17:45;;;;;;;5.47;2.08;;;;;;;17.76;58.12;100098.81;5065784;28;20761;-69
2022/09/29 03:20:11;;;;;;;8.20;1.90;;;;;;;17.77;58.58;100097.78;5066110;28;20445;-69
2022/09/29 03:22:36;;;;;;;5.53;1.83;;;;;;;17.76;58.66;100098.81;5065192;28;20395;-70
2022/09/29 03:26:56;;;;;;;9.77;2.00;;;;;;;17.78;58.76;100098.59;5078087;27;20408;-69
2022/09/29 03:29:22;;;;;;;6.00;2.03;;;;;;;17.80;58.78;100101.03;5066441;28;20839;-70
2022/09/29 03:31:47;;;;;;;7.93;2.10;;;;;;;17.77;58.93;100100.47;5066372;28;20449;-69
2022/09/29 03:34:12;;;;;;;6.70;2.10;;;;;;;17.77;58.78;100094.25;5060267;28;20490;-69
2022/09/29 03:36:40;;;;;;;11.53;2.97;;;;;;;17.73;58.51;100096.59;5065964;28;20893;-69
2022/09/29 03:39:05;;;;;;;4.37;2.27;;;;;;;17.73;58.34;100098.47;5066219;28;20494;-69
2022/09/29 03:41:31;;;;;;;6.03;2.60;;;;;;;17.69;58.41;100092.75;5065493;28;20834;-69
2022/09/29 03:43:56;;;;;;;19.47;3.63;;;;;;;17.68;58.53;100093.81;5066363;28;20728;-69
2022/09/29 03:46:22;;;;;;;11.40;2.57;;;;;;;17.65;58.78;100083.56;5065954;28;20423;-69
2022/09/29 03:51:16;;;;;;;14.50;2.90;;;;;;;17.66;58.78;100095.06;5072501;27;2218806;-70
2022/09/29 03:54:17;;;;;;;10.95;2.45;;;;;;;17.65;58.61;100096.16;5072995;28;20481;-70
2022/09/29 03:56:42;;;;;;;8.38;2.50;;;;;;;17.67;58.40;100099.41;5064621;28;20913;-70
2022/09/29 04:01:01;;;;;;;11.02;2.80;;;;;;;17.66;58.60;100111.97;5045942;28;20413;-69
2022/09/29 04:03:27;;;;;;;10.75;3.70;;;;;;;17.66;58.54;100106.59;5037755;28;20403;-69
2022/09/29 04:06:50;;;;;;;6.28;3.03;;;;;;;17.67;58.68;100102.09;5080488;28;20903;-69
2022/09/29 04:09:16;;;;;;;7.65;3.00;;;;;;;17.67;58.75;100096.72;5066422;28;20441;-69
2022/09/29 04:11:41;;;;;;;14.60;3.70;;;;;;;17.64;58.73;100089.13;5067404;28;20453;-69
2022/09/29 04:14:07;;;;;;;12.20;3.90;;;;;;;17.60;58.87;100088.78;5060687;28;20396;-70
2022/09/29 04:16:32;;;;;;;7.50;3.07;;;;;;;17.57;58.71;100089.25;5064826;28;20415;-71
2022/09/29 04:19:33;;;;;;;14.75;3.33;;;;;;;17.59;58.48;100105.91;5074884;27;20412;-70
2022/09/29 04:21:59;;;;;;;9.23;2.60;;;;;;;17.57;58.30;100103.47;5084924;28;20414;-70
2022/09/29 04:24:24;;;;;;;8.87;3.00;;;;;;;17.56;58.23;100107.19;5074059;28;20403;-71
2022/09/29 04:26:50;;;;;;;16.63;3.30;;;;;;;17.53;58.23;100093.44;5070312;28;20430;-71
2022/09/29 04:29:16;;;;;;;11.20;3.40;;;;;;;17.53;58.30;100099.59;5065275;28;20793;-69
2022/09/29 04:31:41;;;;;;;9.13;4.00;;;;;;;17.53;58.17;100099.59;5066499;28;20471;-71
2022/09/29 04:34:06;;;;;;;12.47;3.50;;;;;;;17.50;58.15;100097.41;5085069;28;20932;-71
2022/09/29 04:36:32;;;;;;;8.50;3.15;;;;;;;17.51;58.25;100104.38;5073088;28;20789;-72
2022/09/29 04:38:58;;;;;;;11.63;3.67;;;;;;;17.51;58.24;100095.53;5075418;28;20490;-71
2022/09/29 04:41:23;;;;;;;9.25;3.13;;;;;;;17.51;58.34;100103.56;5071138;28;20380;-71
2022/09/29 04:43:49;;;;;;;10.33;3.40;;;;;;;17.54;58.16;100111.97;5070257;28;20885;-71
2022/09/29 04:46:14;;;;;;;19.23;3.90;;;;;;;17.53;58.26;100107.63;5069024;28;20368;-70
2022/09/29 04:48:40;;;;;;;14.07;3.97;;;;;;;17.53;58.27;100101.47;5071909;28;20391;-72
2022/09/29 04:51:06;;;;;;;14.50;4.15;;;;;;;17.58;58.28;100098.91;5066668;28;20411;-70
2022/09/29 04:53:32;;;;;;;10.20;3.70;;;;;;;17.61;58.19;100092.28;5067345;28;20419;-71
2022/09/29 04:55:58;;;;;;;12.83;3.50;;;;;;;17.67;57.85;100107.44;5076317;28;20414;-71
2022/09/29 04:58:24;;;;;;;8.97;3.37;;;;;;;17.70;57.77;100102.44;5084488;28;20462;-70
2022/09/29 05:00:49;;;;;;;11.68;3.53;;;;;;;17.95;57.39;100112.97;5073835;28;20442;-72
2022/09/29 05:03:15;;;;;;;8.60;3.63;;;;;;;18.20;56.81;100105.72;5071495;28;20416;-71
2022/09/29 05:05:40;;;;;;;8.95;3.97;;;;;;;18.21;56.80;100104.66;5070725;28;20905;-71
2022/09/29 05:09:26;;;;;;;12.30;4.50;;;;;;;18.54;56.58;100110.19;5052704;28;20407;-70
2022/09/29 05:11:52;;;;;;;10.20;4.75;;;;;;;18.79;56.59;100105.56;5026685;28;21619;-70
2022/09/29 05:14:17;;;;;;;13.27;4.70;;;;;;;18.88;55.74;100090.75;5019552;28;20420;-70
2022/09/29 05:16:42;;;;;;;12.57;4.65;;;;;;;18.95;55.56;100101.34;5022330;28;20387;-70
2022/09/29 05:19:09;;;;;;;12.73;4.73;;;;;;;18.87;55.78;100107.88;5041470;28;20492;-70
2022/09/29 05:21:35;;;;;;;14.02;4.85;;;;;;;18.90;56.23;100112.78;5026818;28;20375;-70
2022/09/29 05:24:01;;;;;;;12.60;5.00;;;;;;;18.97;56.31;100113.47;5025161;28;20854;-71
2022/09/29 05:26:26;;;;;;;12.57;5.00;;;;;;;19.07;56.24;100110.16;5026768;28;20410;-69
2022/09/29 05:28:52;;;;;;;19.87;6.13;;;;;;;19.03;56.36;100106.31;5026230;28;20433;-69
2022/09/29 05:31:17;;;;;;;12.52;5.57;;;;;;;19.06;56.21;100116.59;5026473;28;20454;-69
2022/09/29 05:33:43;;;;;;;12.17;5.27;;;;;;;19.04;56.22;100111.44;5020653;28;20462;-69
2022/09/29 05:36:11;;;;;;;12.60;4.80;;;;;;;19.14;56.43;100123.44;5025508;28;20441;-69
2022/09/29 05:38:37;;;;;;;16.67;5.57;;;;;;;19.17;56.18;100117.59;5025241;28;20386;-69
2022/09/29 05:41:08;;;;;;;16.58;5.70;;;;;;;19.19;56.23;100127.00;5022884;28;20414;-70
2022/09/29 05:43:34;;;;;;;10.52;5.78;;;;;;;19.23;56.19;100132.72;5024457;28;20387;-69
2022/09/29 05:48:24;;;;;;;14.40;5.20;;;;;;;19.35;56.54;100130.00;5071200;27;20782;-69
2022/09/29 05:50:50;;;;;;;19.60;5.57;;;;;;;19.41;56.26;100132.53;5062598;28;20408;-69
2022/09/29 05:53:15;;;;;;;11.80;5.13;;;;;;;19.40;56.09;100143.53;5065695;28;20442;-69
2022/09/29 05:55:40;;;;;;;10.60;4.10;;;;;;;19.35;56.12;100140.75;5065727;28;20892;-69
2022/09/29 05:58:06;;;;;;;17.60;7.07;;;;;;;19.33;56.28;100149.03;5059137;28;20907;-69
2022/09/29 06:00:32;;;;;;;13.10;5.60;;;;;;;19.31;56.37;100150.34;5066145;28;20392;-69
2022/09/29 06:03:01;;;;;;;12.73;6.80;;;;;;;19.29;56.42;100159.47;5066305;28;20380;-70
2022/09/29 06:05:27;;;;;;;13.93;6.15;;;;;;;19.33;56.48;100170.53;5052497;28;20556;-70
2022/09/29 06:07:54;;;;;;;16.80;7.82;;;;;;;19.31;56.55;100177.22;5052214;28;20470;-70
2022/09/29 06:10:20;;;;;;;13.50;5.23;;;;;;;19.31;56.41;100190.66;5054012;28;20406;-69
2022/09/29 06:12:46;;;;;;;16.25;7.43;;;;;;;19.26;56.78;100192.19;5064478;28;20901;-70
2022/09/29 06:15:12;;;;;;;14.80;5.60;;;;;;;19.25;57.10;100181.69;5066240;28;20528;-69
2022/09/29 06:17:38;;;;;;;9.27;4.78;;;;;;;19.19;57.08;100177.25;5066007;28;20376;-70
2022/09/29 06:20:05;;;;;;;11.57;4.20;;;;;;;19.05;57.47;100177.56;5065843;28;20376;-70
2022/09/29 06:22:31;;;;;;;8.93;4.10;;;;;;;19.06;57.73;100181.06;5065672;28;20395;-70
2022/09/29 06:24:57;;;;;;;8.93;4.37;;;;;;;19.06;58.15;100179.16;5066083;28;20781;-69
2022/09/29 06:28:40;;;;;;;9.68;4.65;;;;;;;18.78;59.42;100155.78;5107908;27;20802;-70
2022/09/29 06:31:09;;;;;;;9.60;5.15;;;;;;;18.71;59.82;100155.09;5086303;28;20761;-70
2022/09/29 06:33:35;;;;;;;11.45;4.50;;;;;;;18.80;59.90;100158.22;5086436;28;20822;-70
2022/09/29 06:38:51;;;;;;;10.85;4.95;;;;;;;18.85;60.09;100164.56;5075471;28;20390;-70
2022/09/29 06:41:18;;;;;;;7.90;4.70;;;;;;;18.85;60.25;100161.88;5086596;28;20868;-69
2022/09/29 06:43:43;;;;;;;10.30;5.37;;;;;;;18.90;60.64;100159.25;5086075;28;20875;-69
2022/09/29 06:46:09;;;;;;;11.05;5.80;;;;;;;19.03;60.93;100170.78;5086236;28;20461;-70
2022/09/29 06:48:34;;;;;;;8.53;5.60;;;;;;;19.13;60.98;100164.81;5085854;28;20409;-69
2022/09/29 06:51:00;;;;;;;13.40;5.97;;;;;;;19.19;61.18;100172.69;5086434;28;20385;-69
2022/09/29 06:53:25;;;;;;;10.10;5.67;;;;;;;19.22;61.19;100176.78;5086056;28;20428;-70
2022/09/29 06:57:09;;;;;;;12.27;7.28;;;;;;;19.29;61.09;100185.53;5106450;27;2040787;-69
2022/09/29 06:59:35;;;;;;;10.82;6.78;;;;;;;19.31;61.15;100190.66;5157827;27;20394;-69
2022/09/29 07:02:01;;;;;;;9.63;7.07;;;;;;;19.38;61.05;100202.88;5149139;27;20432;-69
2022/09/29 07:04:26;;;;;;;10.10;6.67;;;;;;;19.35;61.08;100213.31;5145044;27;20367;-69
2022/09/29 07:06:52;;;;;;;11.57;7.53;;;;;;;19.34;61.29;100223.25;5152021;27;20382;-69
2022/09/29 07:09:18;;;;;;;10.25;6.43;;;;;;;19.38;61.05;100215.53;5166306;27;20395;-69
2022/09/29 07:11:47;;;;;;;9.90;7.30;;;;;;;19.41;61.08;100220.38;5168072;27;20868;-70
2022/09/29 07:14:14;;;;;;;12.80;7.57;;;;;;;19.45;61.11;100235.81;5166347;27;20397;-69
2022/09/29 07:16:39;;;;;;;14.18;8.50;;;;;;;19.44;60.98;100230.66;5149755;27;20815;-69
2022/09/29 07:19:05;;;;;;;14.67;8.30;;;;;;;19.49;61.08;100238.84;5155367;27;20898;-68
2022/09/29 07:21:30;;;;;;;12.98;8.20;;;;;;;19.51;61.04;100241.28;5167714;27;20370;-69
2022/09/29 07:23:55;;;;;;;11.07;7.27;;;;;;;19.55;60.96;100250.50;5167071;27;20860;-69
2022/09/29 07:26:21;;;;;;;8.52;6.50;;;;;;;19.56;61.11;100252.94;5157515;27;20366;-69
2022/09/29 07:28:47;;;;;;;10.87;6.03;;;;;;;19.56;61.17;100258.31;5148530;27;20376;-69
2022/09/29 07:31:16;;;;;;;9.18;5.88;;;;;;;19.59;61.35;100265.91;5165801;27;20392;-69
2022/09/29 07:33:46;;;;;;;7.68;5.10;;;;;;;19.61;61.29;100271.88;5153463;27;20936;-69
2022/09/29 07:36:13;;;;;;;10.82;5.57;;;;;;;19.60;61.48;100274.78;5141126;27;20409;-69
2022/09/29 07:38:38;;;;;;;12.75;5.32;;;;;;;19.61;61.80;100273.75;5137712;27;20380;-69
2022/09/29 07:41:10;;;;;;;9.30;5.17;;;;;;;19.64;61.63;100294.75;5144923;27;20393;-69
2022/09/29 07:43:36;;;;;;;11.80;6.32;;;;;;;19.67;61.60;100300.47;5143122;27;20386;-69
2022/09/29 07:47:00;;;;;;;12.43;6.63;;;;;;;19.67;61.84;100299.66;5087424;27;20406;-69
2022/09/29 07:49:25;;;;;;;11.90;7.10;;;;;;;19.70;61.94;100285.75;5080316;28;20982;-70
2022/09/29 07:51:51;;;;;;;12.23;7.63;;;;;;;19.72;61.96;100291.69;5076897;28;20880;-69
2022/09/29 07:54:16;;;;;;;16.37;8.30;;;;;;;19.75;62.46;100301.16;5076889;28;20388;-70
2022/09/29 07:56:42;;;;;;;11.98;8.00;;;;;;;19.78;62.53;100287.25;5082313;28;20473;-69
2022/09/29 07:59:10;;;;;;;11.90;7.50;;;;;;;19.83;62.74;100285.47;5086758;28;20382;-69
2022/09/29 08:01:35;;;;;;;13.55;7.43;;;;;;;19.85;62.77;100279.84;5068258;28;20422;-69
2022/09/29 08:04:01;;;;;;;10.83;6.80;;;;;;;19.84;62.14;100283.59;5073110;28;20891;-70
2022/09/29 08:06:27;;;;;;;10.00;6.93;;;;;;;19.85;61.54;100279.84;5074513;28;20433;-70
2022/09/29 08:08:53;;;;;;;12.50;6.47;;;;;;;19.86;61.90;100285.00;5076624;28;20392;-70
2022/09/29 08:11:20;;;;;;;10.27;6.43;;;;;;;19.85;62.28;100282.53;5080197;28;20387;-70
2022/09/29 08:13:47;;;;;;;8.80;6.70;;;;;;;19.90;62.14;100281.78;5080551;28;20431;-70
2022/09/29 08:16:14;;;;;;;9.50;6.45;;;;;;;19.94;61.92;100293.72;5080214;28;20377;-70
2022/09/29 08:20:05;;;;;;;13.35;7.47;;;;;;;19.96;62.16;100281.66;5032648;28;20470;-70
2022/09/29 08:22:31;;;;;;;8.40;6.43;;;;;;;19.95;61.79;100282.72;5014813;28;20410;-69
2022/09/29 08:24:58;;;;;;;11.20;6.90;;;;;;;19.98;62.14;100276.03;5024669;28;20375;-70
2022/09/29 08:27:24;;;;;;;10.45;7.03;;;;;;;20.03;62.24;100270.75;5026789;28;20384;-70
2022/09/29 08:29:49;;;;;;;8.20;5.67;;;;;;;20.00;62.34;100266.63;5022502;28;20373;-70
2022/09/29 08:32:16;;;;;;;7.93;5.20;;;;;;;19.98;62.18;100262.56;5018666;28;20781;-70
2022/09/29 08:36:20;;;;;;;8.55;7.15;;;;;;;20.01;62.23;100260.22;5066867;27;20820;-70
2022/09/29 08:38:51;;;;;;;10.18;7.65;;;;;;;20.14;62.52;100266.34;5066869;28;20391;-70
2022/09/29 08:41:28;;;;;;;8.82;5.05;;;;;;;20.21;61.68;100262.41;5066893;28;20447;-69
2022/09/29 08:44:04;;;;;;;10.65;6.35;;;;;;;20.27;61.38;100265.19;5058097;28;20393;-69
2022/09/29 08:46:57;;;;;;;12.35;6.00;;;;;;;20.33;61.74;100269.59;5062589;28;20397;-69
2022/09/29 08:49:38;;;;;;;8.57;5.00;;;;;;;20.34;61.38;100271.22;5054463;28;20412;-70
2022/09/29 08:52:15;;;;;;;7.63;5.00;;;;;;;20.34;61.25;100277.41;5064009;28;20395;-70
2022/09/29 08:54:43;;;;;;;7.23;5.30;;;;;;;20.32;61.57;100260.69;5054688;28;20768;-70
2022/09/29 08:57:16;;;;;;;8.75;5.10;;;;;;;20.37;61.36;100268.06;5064180;28;20388;-70
2022/09/29 08:59:42;;;;;;;8.50;5.20;;;;;;;20.43;61.57;100269.75;5054243;28;20813;-70
2022/09/29 09:02:46;;;;;;;6.32;4.70;;;;;;;20.34;61.50;100263.16;5075292;27;20941;-69
2022/09/29 09:05:39;;;;;;;7.15;5.13;;;;;;;20.25;61.52;100265.44;5051038;28;20405;-70
2022/09/29 09:09:01;;;;;;;7.43;5.25;;;;;;;20.28;61.03;100264.16;5080114;27;20408;-70
2022/09/29 09:11:42;;;;;;;9.00;4.97;;;;;;;20.42;61.11;100258.19;5053956;28;20391;-70
2022/09/29 09:14:57;;;;;;;7.03;5.20;;;;;;;20.41;60.97;100261.09;5066560;28;20419;-70
2022/09/29 09:17:36;;;;;;;9.60;5.70;;;;;;;20.39;61.14;100252.47;5029814;28;21093;-69
2022/09/29 09:20:33;;;;;;;8.85;5.55;;;;;;;20.47;61.27;100257.41;5032246;28;20421;-70
2022/09/29 09:23:20;;;;;;;8.63;5.45;;;;;;;20.54;61.12;100266.13;5062886;28;20391;-69
2022/09/29 09:25:53;;;;;;;9.77;6.50;;;;;;;20.46;59.96;100265.75;5066396;28;20474;-69
2022/09/29 09:28:31;;;;;;;9.95;6.40;;;;;;;20.40;59.95;100271.06;5052875;28;20447;-70
2022/09/29 09:31:03;;;;;;;8.75;6.45;;;;;;;20.50;60.28;100270.41;5066612;28;20429;-69
2022/09/29 09:33:42;;;;;;;13.73;7.00;;;;;;;20.64;60.40;100281.69;5051818;28;20759;-69
2022/09/29 09:36:11;;;;;;;9.15;7.60;;;;;;;20.71;60.61;100279.63;5066108;28;20438;-70
2022/09/29 09:39:01;;;;;;;11.35;8.00;;;;;;;20.82;60.56;100288.66;5065107;28;20467;-70
2022/09/29 09:41:28;;;;;;;12.27;8.30;;;;;;;20.91;60.28;100294.44;5065624;28;20901;-70
2022/09/29 09:44:01;;;;;;;10.27;7.75;;;;;;;20.91;60.05;100286.34;5066096;28;20395;-70
2022/09/29 09:46:38;;;;;;;13.10;9.15;;;;;;;20.94;60.33;100292.06;5065688;28;20388;-69
2022/09/29 09:49:10;;;;;;;9.95;7.95;;;;;;;20.94;59.95;100293.91;5066075;28;20463;-69
2022/09/29 09:51:53;;;;;;;11.32;8.15;;;;;;;20.87;59.53;100282.50;5065472;28;20762;-71
2022/09/29 09:55:00;;;;;;;11.05;8.95;;;;;;;20.89;60.29;100283.09;5054925;28;20414;-70
2022/09/29 09:57:31;;;;;;;11.43;8.23;;;;;;;20.92;59.93;100286.13;5046472;28;20472;-70
2022/09/29 10:00:13;;;;;;;10.80;7.43;;;;;;;20.99;59.66;100286.75;5046549;28;20868;-70
2022/09/29 10:02:45;;;;;;;8.73;7.50;;;;;;;21.02;59.77;100290.81;5046678;28;20816;-70
2022/09/29 10:05:14;;;;;;;9.32;7.95;;;;;;;21.03;59.24;100303.25;5046447;28;20434;-70
2022/09/29 10:07:39;;;;;;;13.37;7.20;;;;;;;21.04;58.95;100296.75;5046213;28;20385;-70
2022/09/29 10:10:18;;;;;;;9.35;7.05;;;;;;;20.98;59.47;100295.09;5046462;28;20760;-70
2022/09/29 10:12:44;;;;;;;8.77;6.68;;;;;;;21.01;59.74;100310.72;5046260;28;20386;-71
2022/09/29 10:15:15;;;;;;;9.10;6.10;;;;;;;21.03;59.58;100313.19;5046618;28;20490;-70
2022/09/29 10:17:45;;;;;;;10.60;7.43;;;;;;;21.09;59.91;100317.59;5044587;28;20408;-70
2022/09/29 10:20:11;;;;;;;7.63;5.80;;;;;;;21.02;60.16;100311.56;5045431;28;20401;-70
2022/09/29 10:22:38;;;;;;;9.03;5.87;;;;;;;21.07;60.28;100314.31;5046198;28;20893;-71
2022/09/29 10:25:17;;;;;;;7.95;5.78;;;;;;;20.97;59.73;100318.50;5046076;28;20385;-71
2022/09/29 10:27:46;;;;;;;7.28;5.60;;;;;;;21.06;59.92;100316.19;5046042;28;20386;-70
2022/09/29 10:30:34;;;;;;;7.38;5.75;;;;;;;21.11;59.79;100305.47;5046393;28;20386;-70
2022/09/29 10:33:04;;;;;;;9.57;7.63;;;;;;;21.14;60.51;100317.63;5045984;28;21505;-71
2022/09/29 10:35:36;;;;;;;6.93;5.53;;;;;;;21.09;59.84;100320.28;5045932;28;20892;-71
2022/09/29 10:38:08;;;;;;;7.28;5.32;;;;;;;21.04;59.67;100302.16;5045745;28;20830;-71
2022/09/29 10:40:34;;;;;;;10.13;5.57;;;;;;;21.14;59.18;100294.22;5046049;28;20435;-71
2022/09/29 10:43:22;;;;;;;7.00;6.03;;;;;;;21.35;59.14;100305.22;5045483;28;20390;-71
2022/09/29 10:45:48;;;;;;;10.90;6.20;;;;;;;21.37;59.06;100293.13;5045949;28;20883;-70
2022/09/29 10:48:14;;;;;;;9.80;6.95;;;;;;;21.44;59.76;100290.22;5045660;28;20410;-71
2022/09/29 10:50:53;;;;;;;9.30;7.20;;;;;;;21.44;59.85;100286.72;5045502;28;20429;-70
2022/09/29 10:53:33;;;;;;;10.97;7.30;;;;;;;21.25;59.59;100292.44;5045347;28;20835;-70
2022/09/29 10:56:01;;;;;;;11.80;7.80;;;;;;;21.19;59.61;100288.03;5045331;28;20875;-70
2022/09/29 10:58:29;;;;;;;10.85;7.93;;;;;;;21.15;59.57;100286.94;5044079;28;20425;-70
2022/09/29 11:01:09;;;;;;;11.10;8.15;;;;;;;21.12;60.38;100287.41;5045032;28;20461;-70
2022/09/29 11:03:38;;;;;;;12.02;8.48;;;;;;;21.12;60.59;100285.56;5048900;28;20438;-70
2022/09/29 11:06:10;;;;;;;11.55;8.93;;;;;;;21.20;60.41;100277.03;5033222;28;20392;-70
2022/09/29 11:09:00;;;;;;;12.23;8.82;;;;;;;21.30;60.18;100278.19;5032093;28;20385;-70
2022/09/29 11:11:58;;;;;;;10.20;9.15;;;;;;;21.34;60.48;100282.03;5018274;28;20397;-71
2022/09/29 11:14:36;;;;;;;11.73;9.18;;;;;;;21.30;60.78;100283.59;5029529;28;20421;-70
2022/09/29 11:17:19;;;;;;;11.25;9.27;;;;;;;21.22;60.94;100286.75;5031780;28;20382;-71
2022/09/29 11:22:24;;;;;;;13.43;8.82;;;;;;;21.31;60.87;100280.66;5096586;27;20461;-72
2022/09/29 11:25:18;;;;;;;9.43;7.53;;;;;;;21.38;60.60;100286.66;5064841;28;20411;-72
2022/09/29 11:28:22;;;;;;;9.95;7.22;;;;;;;21.36;60.59;100285.31;5060586;28;20396;-71
2022/09/29 11:33:04;;;;;;;7.70;5.93;;;;;;;21.29;60.03;100287.38;5090534;27;20847;-71
2022/09/29 11:36:15;;;;;;;11.50;6.97;;;;;;;21.48;59.85;100296.81;5094978;27;20406;-70
2022/09/29 11:39:01;;;;;;;7.20;5.55;;;;;;;21.57;59.44;100289.03;5082178;28;20447;-70
2022/09/29 11:41:41;;;;;;;7.72;5.90;;;;;;;21.63;59.56;100292.63;5079540;28;20413;-70
2022/09/29 11:44:36;;;;;;;8.02;5.88;;;;;;;21.64;59.85;100292.34;5080684;28;20391;-70
2022/09/29 11:47:25;;;;;;;9.38;6.13;;;;;;;21.63;60.01;100293.44;5080680;28;20380;-70
2022/09/29 11:50:17;;;;;;;8.65;6.60;;;;;;;21.70;60.61;100307.53;5069119;28;20388;-70
2022/09/29 11:53:09;;;;;;;10.82;6.70;;;;;;;21.76;60.86;100290.34;5066779;28;20386;-71
2022/09/29 11:55:54;;;;;;;9.20;6.32;;;;;;;21.83;61.14;100290.13;5076099;28;20548;-71
2022/09/29 11:58:34;;;;;;;9.02;6.65;;;;;;;21.88;61.03;100286.69;5071361;28;20382;-69
2022/09/29 12:01:47;;;;;;;10.30;6.13;;;;;;;21.89;60.64;100277.50;5078485;28;20382;-70
2022/09/29 12:04:39;;;;;;;9.18;6.20;;;;;;;21.82;59.79;100291.19;5065490;28;20426;-70
2022/09/29 12:07:44;;;;;;;9.40;6.13;;;;;;;21.84;60.32;100283.69;5079093;28;20814;-70
2022/09/29 12:10:35;;;;;;;7.95;5.70;;;;;;;21.95;59.34;100287.28;5078167;28;20394;-70
2022/09/29 12:13:24;;;;;;;8.20;5.93;;;;;;;21.88;59.19;100276.69;5077411;28;20384;-70
2022/09/29 12:16:03;;;;;;;7.32;6.38;;;;;;;21.91;59.58;100280.75;5082443;28;20410;-71
2022/09/29 12:18:47;;;;;;;8.27;6.13;;;;;;;21.85;59.08;100279.91;5085835;28;20394;-71
2022/09/29 12:21:16;;;;;;;9.60;6.10;;;;;;;21.83;58.85;100273.13;5082237;28;20394;-71
2022/09/29 12:24:16;;;;;;;8.65;6.18;;;;;;;21.67;59.04;100281.06;5089046;27;2087512;-72
2022/09/29 12:26:46;;;;;;;7.90;6.40;;;;;;;21.66;59.24;100275.94;5148569;27;20386;-71
2022/09/29 12:30:28;;;;;;;9.70;6.80;;;;;;;21.75;59.78;100279.78;5054346;28;20409;-71
2022/09/29 12:33:07;;;;;;;10.13;6.83;;;;;;;21.85;59.33;100273.69;5039859;28;20407;-71
2022/09/29 12:37:04;;;;;;;8.93;6.55;;;;;;;21.89;59.16;100264.00;5073363;28;20412;-70
2022/09/29 12:39:36;;;;;;;7.70;6.03;;;;;;;21.86;58.93;100265.34;5060764;28;20795;-70
2022/09/29 12:42:28;;;;;;;8.60;6.40;;;;;;;21.82;59.35;100266.09;5065251;28;20423;-71